sensor_id;sensor_type;location;lat;lon;timestamp;P1;durP1;ratioP1;P2;durP2;ratioP2
3726;SDS011;1879;45.876;12.300;2022-10-15T00:02:10;23.87;;;21.13;;
3726;SDS011;1879;45.876;12.300;2022-10-15T00:04:37;26.10;;;21.63;;
3726;SDS011;1879;45.876;12.300;2022-10-15T00:07:06;25.13;;;22.10;;
3726;SDS011;1879;45.876;12.300;2022-10-15T00:09:33;25.73;;;22.93;;
3726;SDS011;1879;45.876;12.300;2022-10-15T00:12:00;24.73;;;20.93;;
3726;SDS011;1879;45.876;12.300;2022-10-15T00:14:27;28.23;;;21.60;;
3726;SDS011;1879;45.876;12.300;2022-10-15T00:16:54;26.63;;;22.20;;
3726;SDS011;1879;45.876;12.300;2022-10-15T00:19:21;26.10;;;22.50;;
3726;SDS011;1879;45.876;12.300;2022-10-15T00:21:48;24.77;;;21.10;;
3726;SDS011;1879;45.876;12.300;2022-10-15T00:24:17;25.27;;;21.53;;
3726;SDS011;1879;45.876;12.300;2022-10-15T00:26:44;26.37;;;22.30;;
3726;SDS011;1879;45.876;12.300;2022-10-15T00:29:11;24.37;;;21.83;;
3726;SDS011;1879;45.876;12.300;2022-10-15T00:31:38;24.03;;;21.03;;
3726;SDS011;1879;45.876;12.300;2022-10-15T00:34:05;23.83;;;20.87;;
3726;SDS011;1879;45.876;12.300;2022-10-15T00:36:33;25.63;;;21.63;;
3726;SDS011;1879;45.876;12.300;2022-10-15T00:39:02;27.03;;;22.80;;
3726;SDS011;1879;45.876;12.300;2022-10-15T00:41:32;25.93;;;20.30;;
3726;SDS011;1879;45.876;12.300;2022-10-15T00:44:01;26.40;;;22.60;;
3726;SDS011;1879;45.876;12.300;2022-10-15T00:46:44;23.40;;;20.27;;
3726;SDS011;1879;45.876;12.300;2022-10-15T00:49:16;29.80;;;23.33;;
3726;SDS011;1879;45.876;12.300;2022-10-15T00:51:48;23.70;;;21.13;;
3726;SDS011;1879;45.876;12.300;2022-10-15T00:54:21;26.60;;;22.90;;
3726;SDS011;1879;45.876;12.300;2022-10-15T00:56:52;25.40;;;22.50;;
3726;SDS011;1879;45.876;12.300;2022-10-15T00:59:21;26.93;;;21.60;;
3726;SDS011;1879;45.876;12.300;2022-10-15T01:01:50;28.73;;;22.47;;
3726;SDS011;1879;45.876;12.300;2022-10-15T01:04:18;25.80;;;22.10;;
3726;SDS011;1879;45.876;12.300;2022-10-15T01:06:46;30.63;;;21.87;;
3726;SDS011;1879;45.876;12.300;2022-10-15T01:09:13;26.10;;;21.67;;
3726;SDS011;1879;45.876;12.300;2022-10-15T01:11:41;25.70;;;22.93;;
3726;SDS011;1879;45.876;12.300;2022-10-15T01:14:16;26.60;;;23.80;;
3726;SDS011;1879;45.876;12.300;2022-10-15T01:16:54;27.70;;;22.73;;
3726;SDS011;1879;45.876;12.300;2022-10-15T01:19:27;26.40;;;21.80;;
3726;SDS011;1879;45.876;12.300;2022-10-15T01:22:07;24.87;;;22.37;;
3726;SDS011;1879;45.876;12.300;2022-10-15T01:24:44;27.50;;;24.63;;
3726;SDS011;1879;45.876;12.300;2022-10-15T01:27:28;27.53;;;23.00;;
3726;SDS011;1879;45.876;12.300;2022-10-15T01:32:59;24.40;;;20.67;;
3726;SDS011;1879;45.876;12.300;2022-10-15T01:35:49;27.00;;;22.67;;
3726;SDS011;1879;45.876;12.300;2022-10-15T01:38:24;24.53;;;21.70;;
3726;SDS011;1879;45.876;12.300;2022-10-15T01:40:59;24.53;;;21.90;;
3726;SDS011;1879;45.876;12.300;2022-10-15T01:43:32;23.50;;;20.97;;
3726;SDS011;1879;45.876;12.300;2022-10-15T01:46:05;26.37;;;21.30;;
3726;SDS011;1879;45.876;12.300;2022-10-15T01:48:36;24.60;;;21.97;;
3726;SDS011;1879;45.876;12.300;2022-10-15T01:51:05;27.17;;;22.07;;
3726;SDS011;1879;45.876;12.300;2022-10-15T01:53:33;31.40;;;23.50;;
3726;SDS011;1879;45.876;12.300;2022-10-15T01:56:03;28.93;;;24.13;;
3726;SDS011;1879;45.876;12.300;2022-10-15T01:58:33;27.73;;;24.20;;
3726;SDS011;1879;45.876;12.300;2022-10-15T02:01:05;23.97;;;21.40;;
3726;SDS011;1879;45.876;12.300;2022-10-15T02:03:41;29.40;;;22.90;;
3726;SDS011;1879;45.876;12.300;2022-10-15T02:06:09;28.50;;;24.70;;
3726;SDS011;1879;45.876;12.300;2022-10-15T02:08:43;28.03;;;25.03;;
3726;SDS011;1879;45.876;12.300;2022-10-15T02:11:14;27.60;;;23.57;;
3726;SDS011;1879;45.876;12.300;2022-10-15T02:13:45;25.93;;;23.20;;
3726;SDS011;1879;45.876;12.300;2022-10-15T02:16:20;29.27;;;22.50;;
3726;SDS011;1879;45.876;12.300;2022-10-15T02:18:54;25.33;;;21.00;;
3726;SDS011;1879;45.876;12.300;2022-10-15T02:21:27;26.50;;;21.77;;
3726;SDS011;1879;45.876;12.300;2022-10-15T02:23:58;26.83;;;23.70;;
3726;SDS011;1879;45.876;12.300;2022-10-15T02:26:33;25.47;;;22.67;;
3726;SDS011;1879;45.876;12.300;2022-10-15T02:29:01;25.47;;;21.77;;
3726;SDS011;1879;45.876;12.300;2022-10-15T02:31:33;28.50;;;22.70;;
3726;SDS011;1879;45.876;12.300;2022-10-15T02:34:03;27.90;;;23.37;;
3726;SDS011;1879;45.876;12.300;2022-10-15T02:36:32;28.00;;;24.30;;
3726;SDS011;1879;45.876;12.300;2022-10-15T02:39:00;29.10;;;23.93;;
3726;SDS011;1879;45.876;12.300;2022-10-15T02:41:32;25.00;;;22.33;;
3726;SDS011;1879;45.876;12.300;2022-10-15T02:44:00;26.80;;;22.67;;
3726;SDS011;1879;45.876;12.300;2022-10-15T02:46:27;28.33;;;24.67;;
3726;SDS011;1879;45.876;12.300;2022-10-15T02:48:55;28.53;;;23.60;;
3726;SDS011;1879;45.876;12.300;2022-10-15T02:51:22;28.23;;;23.30;;
3726;SDS011;1879;45.876;12.300;2022-10-15T02:53:50;28.20;;;23.83;;
3726;SDS011;1879;45.876;12.300;2022-10-15T02:56:17;27.77;;;24.80;;
3726;SDS011;1879;45.876;12.300;2022-10-15T02:58:43;28.30;;;24.27;;
3726;SDS011;1879;45.876;12.300;2022-10-15T03:01:10;26.03;;;22.57;;
3726;SDS011;1879;45.876;12.300;2022-10-15T03:03:37;27.87;;;24.20;;
3726;SDS011;1879;45.876;12.300;2022-10-15T03:06:06;28.60;;;23.73;;
3726;SDS011;1879;45.876;12.300;2022-10-15T03:08:33;24.97;;;21.90;;
3726;SDS011;1879;45.876;12.300;2022-10-15T03:11:00;25.10;;;22.37;;
3726;SDS011;1879;45.876;12.300;2022-10-15T03:13:28;30.97;;;24.80;;
3726;SDS011;1879;45.876;12.300;2022-10-15T03:15:55;25.73;;;22.13;;
3726;SDS011;1879;45.876;12.300;2022-10-15T03:18:22;27.93;;;24.93;;
3726;SDS011;1879;45.876;12.300;2022-10-15T03:20:52;29.07;;;24.90;;
3726;SDS011;1879;45.876;12.300;2022-10-15T03:23:21;29.20;;;24.90;;
3726;SDS011;1879;45.876;12.300;2022-10-15T03:25:48;30.60;;;25.83;;
3726;SDS011;1879;45.876;12.300;2022-10-15T03:28:16;27.90;;;24.47;;
3726;SDS011;1879;45.876;12.300;2022-10-15T03:30:43;27.60;;;23.33;;
3726;SDS011;1879;45.876;12.300;2022-10-15T03:33:10;28.20;;;24.67;;
3726;SDS011;1879;45.876;12.300;2022-10-15T03:35:38;30.40;;;25.10;;
3726;SDS011;1879;45.876;12.300;2022-10-15T03:38:05;30.17;;;26.90;;
3726;SDS011;1879;45.876;12.300;2022-10-15T03:40:34;29.93;;;24.33;;
3726;SDS011;1879;45.876;12.300;2022-10-15T03:43:01;31.33;;;26.83;;
3726;SDS011;1879;45.876;12.300;2022-10-15T03:45:28;28.70;;;25.23;;
3726;SDS011;1879;45.876;12.300;2022-10-15T03:47:55;32.13;;;26.40;;
3726;SDS011;1879;45.876;12.300;2022-10-15T03:50:22;32.40;;;26.50;;
3726;SDS011;1879;45.876;12.300;2022-10-15T03:52:49;33.60;;;26.20;;
3726;SDS011;1879;45.876;12.300;2022-10-15T03:55:16;32.30;;;27.07;;
3726;SDS011;1879;45.876;12.300;2022-10-15T03:57:45;31.77;;;27.37;;
3726;SDS011;1879;45.876;12.300;2022-10-15T04:00:12;27.00;;;23.63;;
3726;SDS011;1879;45.876;12.300;2022-10-15T04:02:40;30.00;;;26.37;;
3726;SDS011;1879;45.876;12.300;2022-10-15T04:05:07;28.50;;;25.33;;
3726;SDS011;1879;45.876;12.300;2022-10-15T04:07:34;28.60;;;25.60;;
3726;SDS011;1879;45.876;12.300;2022-10-15T04:10:01;31.10;;;27.07;;
3726;SDS011;1879;45.876;12.300;2022-10-15T04:12:29;31.40;;;28.00;;
3726;SDS011;1879;45.876;12.300;2022-10-15T04:14:57;30.33;;;26.90;;
3726;SDS011;1879;45.876;12.300;2022-10-15T04:17:24;31.00;;;25.70;;
3726;SDS011;1879;45.876;12.300;2022-10-15T04:19:51;33.57;;;28.67;;
3726;SDS011;1879;45.876;12.300;2022-10-15T04:22:18;30.53;;;26.80;;
3726;SDS011;1879;45.876;12.300;2022-10-15T04:24:45;33.00;;;26.23;;
3726;SDS011;1879;45.876;12.300;2022-10-15T04:27:12;28.57;;;25.47;;
3726;SDS011;1879;45.876;12.300;2022-10-15T04:29:39;30.53;;;27.30;;
3726;SDS011;1879;45.876;12.300;2022-10-15T04:32:08;29.67;;;25.37;;
3726;SDS011;1879;45.876;12.300;2022-10-15T04:34:38;28.83;;;25.00;;
3726;SDS011;1879;45.876;12.300;2022-10-15T04:37:05;29.67;;;25.03;;
3726;SDS011;1879;45.876;12.300;2022-10-15T04:39:32;31.00;;;26.70;;
3726;SDS011;1879;45.876;12.300;2022-10-15T04:41:59;28.37;;;25.23;;
3726;SDS011;1879;45.876;12.300;2022-10-15T04:44:26;31.87;;;25.40;;
3726;SDS011;1879;45.876;12.300;2022-10-15T04:46:53;28.63;;;25.63;;
3726;SDS011;1879;45.876;12.300;2022-10-15T04:49:21;33.33;;;27.37;;
3726;SDS011;1879;45.876;12.300;2022-10-15T04:51:49;34.00;;;29.03;;
3726;SDS011;1879;45.876;12.300;2022-10-15T04:54:16;31.80;;;28.40;;
3726;SDS011;1879;45.876;12.300;2022-10-15T04:56:43;32.07;;;26.03;;
3726;SDS011;1879;45.876;12.300;2022-10-15T04:59:10;27.43;;;24.50;;
3726;SDS011;1879;45.876;12.300;2022-10-15T05:01:37;29.00;;;25.80;;
3726;SDS011;1879;45.876;12.300;2022-10-15T05:04:04;31.87;;;26.37;;
3726;SDS011;1879;45.876;12.300;2022-10-15T05:06:32;36.07;;;26.77;;
3726;SDS011;1879;45.876;12.300;2022-10-15T05:08:59;33.53;;;29.03;;
3726;SDS011;1879;45.876;12.300;2022-10-15T05:11:27;31.20;;;27.10;;
3726;SDS011;1879;45.876;12.300;2022-10-15T05:13:54;32.53;;;28.23;;
3726;SDS011;1879;45.876;12.300;2022-10-15T05:16:23;31.33;;;26.33;;
3726;SDS011;1879;45.876;12.300;2022-10-15T05:18:54;32.63;;;28.27;;
3726;SDS011;1879;45.876;12.300;2022-10-15T05:21:22;32.40;;;27.23;;
3726;SDS011;1879;45.876;12.300;2022-10-15T05:23:50;30.27;;;26.37;;
3726;SDS011;1879;45.876;12.300;2022-10-15T05:26:19;31.60;;;26.07;;
3726;SDS011;1879;45.876;12.300;2022-10-15T05:28:47;28.07;;;24.47;;
3726;SDS011;1879;45.876;12.300;2022-10-15T05:31:15;34.47;;;28.60;;
3726;SDS011;1879;45.876;12.300;2022-10-15T05:33:43;32.13;;;27.37;;
3726;SDS011;1879;45.876;12.300;2022-10-15T05:36:10;35.80;;;29.47;;
3726;SDS011;1879;45.876;12.300;2022-10-15T05:38:38;31.97;;;27.23;;
3726;SDS011;1879;45.876;12.300;2022-10-15T05:41:07;36.83;;;28.20;;
3726;SDS011;1879;45.876;12.300;2022-10-15T05:43:34;37.90;;;30.10;;
3726;SDS011;1879;45.876;12.300;2022-10-15T05:46:02;35.00;;;30.13;;
3726;SDS011;1879;45.876;12.300;2022-10-15T05:48:29;36.73;;;30.93;;
3726;SDS011;1879;45.876;12.300;2022-10-15T05:50:59;40.83;;;32.60;;
3726;SDS011;1879;45.876;12.300;2022-10-15T05:53:27;34.53;;;29.83;;
3726;SDS011;1879;45.876;12.300;2022-10-15T05:55:54;39.57;;;32.00;;
3726;SDS011;1879;45.876;12.300;2022-10-15T05:58:24;37.70;;;29.90;;
3726;SDS011;1879;45.876;12.300;2022-10-15T06:00:52;37.33;;;32.10;;
3726;SDS011;1879;45.876;12.300;2022-10-15T06:03:20;39.17;;;32.70;;
3726;SDS011;1879;45.876;12.300;2022-10-15T06:05:47;38.93;;;31.20;;
3726;SDS011;1879;45.876;12.300;2022-10-15T06:08:14;39.37;;;31.07;;
3726;SDS011;1879;45.876;12.300;2022-10-15T06:10:41;37.73;;;31.53;;
3726;SDS011;1879;45.876;12.300;2022-10-15T06:13:09;38.30;;;30.60;;
3726;SDS011;1879;45.876;12.300;2022-10-15T06:15:39;39.30;;;31.80;;
3726;SDS011;1879;45.876;12.300;2022-10-15T06:18:06;36.03;;;31.30;;
3726;SDS011;1879;45.876;12.300;2022-10-15T06:20:34;40.13;;;35.10;;
3726;SDS011;1879;45.876;12.300;2022-10-15T06:23:01;45.70;;;33.47;;
3726;SDS011;1879;45.876;12.300;2022-10-15T06:25:29;39.43;;;31.60;;
3726;SDS011;1879;45.876;12.300;2022-10-15T06:27:59;39.60;;;33.53;;
3726;SDS011;1879;45.876;12.300;2022-10-15T06:30:27;35.43;;;30.50;;
3726;SDS011;1879;45.876;12.300;2022-10-15T06:32:56;41.13;;;33.30;;
3726;SDS011;1879;45.876;12.300;2022-10-15T06:35:24;38.40;;;30.77;;
3726;SDS011;1879;45.876;12.300;2022-10-15T06:37:54;38.30;;;32.50;;
3726;SDS011;1879;45.876;12.300;2022-10-15T06:40:21;41.10;;;34.10;;
3726;SDS011;1879;45.876;12.300;2022-10-15T06:42:48;38.23;;;33.43;;
3726;SDS011;1879;45.876;12.300;2022-10-15T06:45:15;37.30;;;31.43;;
3726;SDS011;1879;45.876;12.300;2022-10-15T06:47:42;40.23;;;32.53;;
3726;SDS011;1879;45.876;12.300;2022-10-15T06:50:11;38.60;;;32.20;;
3726;SDS011;1879;45.876;12.300;2022-10-15T06:52:38;39.03;;;32.20;;
3726;SDS011;1879;45.876;12.300;2022-10-15T06:55:05;39.17;;;33.07;;
3726;SDS011;1879;45.876;12.300;2022-10-15T06:57:33;36.47;;;31.10;;
3726;SDS011;1879;45.876;12.300;2022-10-15T07:00:00;36.03;;;31.50;;
3726;SDS011;1879;45.876;12.300;2022-10-15T07:02:27;38.70;;;31.50;;
3726;SDS011;1879;45.876;12.300;2022-10-15T07:04:54;37.73;;;31.77;;
3726;SDS011;1879;45.876;12.300;2022-10-15T07:07:22;36.13;;;31.20;;
3726;SDS011;1879;45.876;12.300;2022-10-15T07:09:49;35.53;;;30.20;;
3726;SDS011;1879;45.876;12.300;2022-10-15T07:12:17;33.93;;;30.30;;
3726;SDS011;1879;45.876;12.300;2022-10-15T07:14:46;38.00;;;30.30;;
3726;SDS011;1879;45.876;12.300;2022-10-15T07:17:13;42.27;;;32.83;;
3726;SDS011;1879;45.876;12.300;2022-10-15T07:19:41;34.50;;;29.87;;
3726;SDS011;1879;45.876;12.300;2022-10-15T07:22:08;36.20;;;31.27;;
3726;SDS011;1879;45.876;12.300;2022-10-15T07:24:37;34.87;;;30.87;;
3726;SDS011;1879;45.876;12.300;2022-10-15T07:27:04;33.73;;;29.90;;
3726;SDS011;1879;45.876;12.300;2022-10-15T07:29:31;36.80;;;30.20;;
3726;SDS011;1879;45.876;12.300;2022-10-15T07:31:58;34.80;;;29.60;;
3726;SDS011;1879;45.876;12.300;2022-10-15T07:34:25;36.20;;;28.63;;
3726;SDS011;1879;45.876;12.300;2022-10-15T07:36:52;33.67;;;30.03;;
3726;SDS011;1879;45.876;12.300;2022-10-15T07:39:19;38.80;;;30.80;;
3726;SDS011;1879;45.876;12.300;2022-10-15T07:41:47;33.90;;;29.53;;
3726;SDS011;1879;45.876;12.300;2022-10-15T07:44:14;32.33;;;29.03;;
3726;SDS011;1879;45.876;12.300;2022-10-15T07:46:41;34.80;;;31.20;;
3726;SDS011;1879;45.876;12.300;2022-10-15T07:49:09;32.53;;;29.13;;
3726;SDS011;1879;45.876;12.300;2022-10-15T07:51:36;36.20;;;31.80;;
3726;SDS011;1879;45.876;12.300;2022-10-15T07:54:03;37.33;;;33.33;;
3726;SDS011;1879;45.876;12.300;2022-10-15T07:56:30;37.13;;;32.77;;
3726;SDS011;1879;45.876;12.300;2022-10-15T07:58:58;36.80;;;32.90;;
3726;SDS011;1879;45.876;12.300;2022-10-15T08:01:25;38.40;;;34.43;;
3726;SDS011;1879;45.876;12.300;2022-10-15T08:03:52;37.10;;;33.13;;
3726;SDS011;1879;45.876;12.300;2022-10-15T08:06:19;37.07;;;33.10;;
3726;SDS011;1879;45.876;12.300;2022-10-15T08:08:46;36.93;;;32.90;;
3726;SDS011;1879;45.876;12.300;2022-10-15T08:11:14;34.47;;;30.43;;
3726;SDS011;1879;45.876;12.300;2022-10-15T08:13:42;37.23;;;33.17;;
3726;SDS011;1879;45.876;12.300;2022-10-15T08:16:13;38.67;;;34.17;;
3726;SDS011;1879;45.876;12.300;2022-10-15T08:18:43;38.03;;;33.97;;
3726;SDS011;1879;45.876;12.300;2022-10-15T08:21:10;38.30;;;34.00;;
3726;SDS011;1879;45.876;12.300;2022-10-15T08:23:38;36.63;;;32.83;;
3726;SDS011;1879;45.876;12.300;2022-10-15T08:26:05;37.30;;;33.50;;
3726;SDS011;1879;45.876;12.300;2022-10-15T08:28:32;39.33;;;35.23;;
3726;SDS011;1879;45.876;12.300;2022-10-15T08:31:00;37.90;;;33.93;;
3726;SDS011;1879;45.876;12.300;2022-10-15T08:33:29;39.93;;;35.70;;
3726;SDS011;1879;45.876;12.300;2022-10-15T08:35:57;60.27;;;44.20;;
3726;SDS011;1879;45.876;12.300;2022-10-15T08:38:24;46.30;;;37.87;;
3726;SDS011;1879;45.876;12.300;2022-10-15T08:40:51;43.20;;;36.77;;
3726;SDS011;1879;45.876;12.300;2022-10-15T08:43:22;44.63;;;35.23;;
3726;SDS011;1879;45.876;12.300;2022-10-15T08:45:53;38.80;;;34.57;;
3726;SDS011;1879;45.876;12.300;2022-10-15T08:48:26;42.20;;;36.50;;
3726;SDS011;1879;45.876;12.300;2022-10-15T08:50:58;38.33;;;34.23;;
3726;SDS011;1879;45.876;12.300;2022-10-15T08:53:28;36.73;;;32.90;;
3726;SDS011;1879;45.876;12.300;2022-10-15T08:56:02;39.50;;;35.33;;
3726;SDS011;1879;45.876;12.300;2022-10-15T08:58:41;41.10;;;33.53;;
3726;SDS011;1879;45.876;12.300;2022-10-15T09:01:16;45.20;;;35.97;;
3726;SDS011;1879;45.876;12.300;2022-10-15T09:03:51;40.87;;;36.03;;
3726;SDS011;1879;45.876;12.300;2022-10-15T09:06:27;38.90;;;34.70;;
3726;SDS011;1879;45.876;12.300;2022-10-15T09:09:01;39.60;;;35.70;;
3726;SDS011;1879;45.876;12.300;2022-10-15T09:11:40;37.90;;;34.00;;
3726;SDS011;1879;45.876;12.300;2022-10-15T09:14:14;37.77;;;33.93;;
3726;SDS011;1879;45.876;12.300;2022-10-15T09:16:45;39.77;;;35.80;;
3726;SDS011;1879;45.876;12.300;2022-10-15T09:19:15;39.43;;;35.30;;
3726;SDS011;1879;45.876;12.300;2022-10-15T09:21:45;38.67;;;34.80;;
3726;SDS011;1879;45.876;12.300;2022-10-15T09:24:16;39.00;;;34.80;;
3726;SDS011;1879;45.876;12.300;2022-10-15T09:26:50;35.67;;;32.17;;
3726;SDS011;1879;45.876;12.300;2022-10-15T09:29:22;39.10;;;34.90;;
3726;SDS011;1879;45.876;12.300;2022-10-15T09:31:57;39.60;;;35.73;;
3726;SDS011;1879;45.876;12.300;2022-10-15T09:34:33;39.00;;;35.20;;
3726;SDS011;1879;45.876;12.300;2022-10-15T09:37:07;37.50;;;32.07;;
3726;SDS011;1879;45.876;12.300;2022-10-15T09:39:45;38.07;;;34.10;;
3726;SDS011;1879;45.876;12.300;2022-10-15T09:42:24;39.70;;;35.80;;
3726;SDS011;1879;45.876;12.300;2022-10-15T09:44:55;37.10;;;33.10;;
3726;SDS011;1879;45.876;12.300;2022-10-15T09:47:27;38.87;;;34.60;;
3726;SDS011;1879;45.876;12.300;2022-10-15T09:49:56;40.93;;;36.73;;
3726;SDS011;1879;45.876;12.300;2022-10-15T09:52:28;38.07;;;34.07;;
3726;SDS011;1879;45.876;12.300;2022-10-15T09:55:09;39.00;;;35.00;;
3726;SDS011;1879;45.876;12.300;2022-10-15T09:57:47;37.13;;;33.43;;
3726;SDS011;1879;45.876;12.300;2022-10-15T10:00:18;37.23;;;33.30;;
3726;SDS011;1879;45.876;12.300;2022-10-15T10:02:49;38.70;;;34.93;;
3726;SDS011;1879;45.876;12.300;2022-10-15T10:05:31;38.10;;;34.33;;
3726;SDS011;1879;45.876;12.300;2022-10-15T10:08:09;37.07;;;33.47;;
3726;SDS011;1879;45.876;12.300;2022-10-15T10:10:44;35.87;;;32.07;;
3726;SDS011;1879;45.876;12.300;2022-10-15T10:13:21;37.73;;;33.63;;
3726;SDS011;1879;45.876;12.300;2022-10-15T10:15:50;37.80;;;33.80;;
3726;SDS011;1879;45.876;12.300;2022-10-15T10:18:19;38.77;;;33.30;;
3726;SDS011;1879;45.876;12.300;2022-10-15T10:20:52;35.80;;;32.30;;
3726;SDS011;1879;45.876;12.300;2022-10-15T10:23:25;37.83;;;34.13;;
3726;SDS011;1879;45.876;12.300;2022-10-15T10:25:59;36.50;;;33.00;;
3726;SDS011;1879;45.876;12.300;2022-10-15T10:28:28;34.63;;;31.40;;
3726;SDS011;1879;45.876;12.300;2022-10-15T10:30:59;34.07;;;30.73;;
3726;SDS011;1879;45.876;12.300;2022-10-15T10:33:33;35.23;;;31.83;;
3726;SDS011;1879;45.876;12.300;2022-10-15T10:36:04;38.63;;;34.70;;
3726;SDS011;1879;45.876;12.300;2022-10-15T10:38:34;36.67;;;32.97;;
3726;SDS011;1879;45.876;12.300;2022-10-15T10:41:03;39.40;;;35.60;;
3726;SDS011;1879;45.876;12.300;2022-10-15T10:43:34;38.50;;;34.70;;
3726;SDS011;1879;45.876;12.300;2022-10-15T10:46:02;35.13;;;31.83;;
3726;SDS011;1879;45.876;12.300;2022-10-15T10:48:38;37.73;;;34.07;;
3726;SDS011;1879;45.876;12.300;2022-10-15T10:51:08;39.17;;;35.57;;
3726;SDS011;1879;45.876;12.300;2022-10-15T10:53:49;37.10;;;33.40;;
3726;SDS011;1879;45.876;12.300;2022-10-15T10:56:20;38.43;;;34.47;;
3726;SDS011;1879;45.876;12.300;2022-10-15T10:58:51;40.13;;;36.40;;
3726;SDS011;1879;45.876;12.300;2022-10-15T11:01:24;38.30;;;34.70;;
3726;SDS011;1879;45.876;12.300;2022-10-15T11:03:52;39.53;;;35.63;;
3726;SDS011;1879;45.876;12.300;2022-10-15T11:06:24;39.33;;;35.43;;
3726;SDS011;1879;45.876;12.300;2022-10-15T11:09:16;39.80;;;35.80;;
3726;SDS011;1879;45.876;12.300;2022-10-15T11:12:03;38.70;;;35.00;;
3726;SDS011;1879;45.876;12.300;2022-10-15T11:14:42;38.90;;;35.30;;
3726;SDS011;1879;45.876;12.300;2022-10-15T11:17:16;36.90;;;33.40;;
3726;SDS011;1879;45.876;12.300;2022-10-15T11:19:50;37.20;;;33.70;;
3726;SDS011;1879;45.876;12.300;2022-10-15T11:22:33;37.10;;;33.70;;
3726;SDS011;1879;45.876;12.300;2022-10-15T11:25:18;36.13;;;32.83;;
3726;SDS011;1879;45.876;12.300;2022-10-15T11:27:59;34.33;;;31.03;;
3726;SDS011;1879;45.876;12.300;2022-10-15T11:30:44;35.57;;;32.27;;
3726;SDS011;1879;45.876;12.300;2022-10-15T11:33:27;32.90;;;30.10;;
3726;SDS011;1879;45.876;12.300;2022-10-15T11:36:13;32.07;;;29.27;;
3726;SDS011;1879;45.876;12.300;2022-10-15T11:38:54;37.37;;;34.20;;
3726;SDS011;1879;45.876;12.300;2022-10-15T11:41:33;35.40;;;32.37;;
3726;SDS011;1879;45.876;12.300;2022-10-15T11:44:18;38.23;;;34.70;;
3726;SDS011;1879;45.876;12.300;2022-10-15T11:46:54;37.33;;;34.00;;
3726;SDS011;1879;45.876;12.300;2022-10-15T11:49:35;35.70;;;32.60;;
3726;SDS011;1879;45.876;12.300;2022-10-15T11:52:14;35.90;;;32.80;;
3726;SDS011;1879;45.876;12.300;2022-10-15T11:54:53;36.20;;;32.80;;
3726;SDS011;1879;45.876;12.300;2022-10-15T11:57:28;35.93;;;32.70;;
3726;SDS011;1879;45.876;12.300;2022-10-15T11:59:59;36.97;;;33.60;;
3726;SDS011;1879;45.876;12.300;2022-10-15T12:02:32;34.00;;;31.10;;
3726;SDS011;1879;45.876;12.300;2022-10-15T12:05:04;36.53;;;33.20;;
3726;SDS011;1879;45.876;12.300;2022-10-15T12:07:34;35.77;;;32.70;;
3726;SDS011;1879;45.876;12.300;2022-10-15T12:10:08;34.37;;;31.20;;
3726;SDS011;1879;45.876;12.300;2022-10-15T12:12:57;35.83;;;32.70;;
3726;SDS011;1879;45.876;12.300;2022-10-15T12:15:31;36.80;;;33.50;;
3726;SDS011;1879;45.876;12.300;2022-10-15T12:18:08;35.13;;;31.87;;
3726;SDS011;1879;45.876;12.300;2022-10-15T12:20:43;36.13;;;32.93;;
3726;SDS011;1879;45.876;12.300;2022-10-15T12:23:21;34.80;;;31.57;;
3726;SDS011;1879;45.876;12.300;2022-10-15T12:25:49;34.33;;;31.13;;
3726;SDS011;1879;45.876;12.300;2022-10-15T12:28:19;33.60;;;30.70;;
3726;SDS011;1879;45.876;12.300;2022-10-15T12:30:52;34.43;;;31.43;;
3726;SDS011;1879;45.876;12.300;2022-10-15T12:33:34;32.63;;;29.53;;
3726;SDS011;1879;45.876;12.300;2022-10-15T12:36:04;31.93;;;29.03;;
3726;SDS011;1879;45.876;12.300;2022-10-15T12:38:35;30.67;;;28.17;;
3726;SDS011;1879;45.876;12.300;2022-10-15T12:41:05;34.70;;;31.70;;
3726;SDS011;1879;45.876;12.300;2022-10-15T12:43:35;31.63;;;29.13;;
3726;SDS011;1879;45.876;12.300;2022-10-15T12:46:07;34.20;;;31.17;;
3726;SDS011;1879;45.876;12.300;2022-10-15T12:48:36;35.77;;;32.80;;
3726;SDS011;1879;45.876;12.300;2022-10-15T13:00:30;37.50;;;34.27;;
3726;SDS011;1879;45.876;12.300;2022-10-15T13:08:52;25.70;;;23.40;;
3726;SDS011;1879;45.876;12.300;2022-10-15T13:11:23;26.43;;;24.13;;
3726;SDS011;1879;45.876;12.300;2022-10-15T13:13:55;29.57;;;26.80;;
3726;SDS011;1879;45.876;12.300;2022-10-15T13:16:27;32.87;;;29.97;;
3726;SDS011;1879;45.876;12.300;2022-10-15T13:18:56;36.33;;;32.93;;
3726;SDS011;1879;45.876;12.300;2022-10-15T13:24:13;39.60;;;36.30;;
3726;SDS011;1879;45.876;12.300;2022-10-15T13:26:43;37.83;;;34.00;;
3726;SDS011;1879;45.876;12.300;2022-10-15T13:29:12;37.23;;;33.90;;
3726;SDS011;1879;45.876;12.300;2022-10-15T13:31:43;39.30;;;35.30;;
3726;SDS011;1879;45.876;12.300;2022-10-15T13:34:13;38.93;;;35.37;;
3726;SDS011;1879;45.876;12.300;2022-10-15T13:36:46;40.57;;;36.37;;
3726;SDS011;1879;45.876;12.300;2022-10-15T13:42:05;39.43;;;35.67;;
3726;SDS011;1879;45.876;12.300;2022-10-15T13:44:35;41.20;;;37.20;;
3726;SDS011;1879;45.876;12.300;2022-10-15T13:47:03;40.13;;;36.43;;
3726;SDS011;1879;45.876;12.300;2022-10-15T13:49:48;40.20;;;36.30;;
3726;SDS011;1879;45.876;12.300;2022-10-15T13:52:15;38.30;;;34.70;;
3726;SDS011;1879;45.876;12.300;2022-10-15T13:54:43;40.10;;;36.20;;
3726;SDS011;1879;45.876;12.300;2022-10-15T13:57:12;38.03;;;34.63;;
3726;SDS011;1879;45.876;12.300;2022-10-15T13:59:43;39.03;;;35.43;;
3726;SDS011;1879;45.876;12.300;2022-10-15T14:02:18;41.27;;;37.47;;
3726;SDS011;1879;45.876;12.300;2022-10-15T14:04:45;42.57;;;38.27;;
3726;SDS011;1879;45.876;12.300;2022-10-15T14:07:20;43.67;;;39.43;;
3726;SDS011;1879;45.876;12.300;2022-10-15T14:09:48;41.10;;;37.20;;
3726;SDS011;1879;45.876;12.300;2022-10-15T14:12:15;43.50;;;39.50;;
3726;SDS011;1879;45.876;12.300;2022-10-15T14:14:43;47.17;;;42.70;;
3726;SDS011;1879;45.876;12.300;2022-10-15T14:17:22;43.53;;;39.23;;
3726;SDS011;1879;45.876;12.300;2022-10-15T14:19:51;44.13;;;39.53;;
3726;SDS011;1879;45.876;12.300;2022-10-15T14:22:22;42.37;;;38.00;;
3726;SDS011;1879;45.876;12.300;2022-10-15T14:24:51;42.10;;;37.70;;
3726;SDS011;1879;45.876;12.300;2022-10-15T14:27:20;41.80;;;37.70;;
3726;SDS011;1879;45.876;12.300;2022-10-15T14:29:49;42.47;;;38.07;;
3726;SDS011;1879;45.876;12.300;2022-10-15T14:32:20;44.03;;;39.53;;
3726;SDS011;1879;45.876;12.300;2022-10-15T14:34:49;43.60;;;38.93;;
3726;SDS011;1879;45.876;12.300;2022-10-15T14:37:31;43.40;;;39.07;;
3726;SDS011;1879;45.876;12.300;2022-10-15T14:40:14;44.67;;;39.80;;
3726;SDS011;1879;45.876;12.300;2022-10-15T14:42:44;45.87;;;41.03;;
3726;SDS011;1879;45.876;12.300;2022-10-15T14:45:18;44.10;;;39.63;;
3726;SDS011;1879;45.876;12.300;2022-10-15T14:47:48;46.00;;;40.97;;
3726;SDS011;1879;45.876;12.300;2022-10-15T14:50:18;47.27;;;42.57;;
3726;SDS011;1879;45.876;12.300;2022-10-15T14:52:46;44.50;;;40.20;;
3726;SDS011;1879;45.876;12.300;2022-10-15T14:55:18;46.70;;;41.90;;
3726;SDS011;1879;45.876;12.300;2022-10-15T14:57:58;43.43;;;39.13;;
3726;SDS011;1879;45.876;12.300;2022-10-15T15:00:28;42.23;;;37.93;;
3726;SDS011;1879;45.876;12.300;2022-10-15T15:03:00;41.90;;;37.63;;
3726;SDS011;1879;45.876;12.300;2022-10-15T15:05:29;43.20;;;38.80;;
3726;SDS011;1879;45.876;12.300;2022-10-15T15:08:08;43.07;;;38.57;;
3726;SDS011;1879;45.876;12.300;2022-10-15T15:10:35;44.03;;;39.60;;
3726;SDS011;1879;45.876;12.300;2022-10-15T15:13:02;43.30;;;38.93;;
3726;SDS011;1879;45.876;12.300;2022-10-15T15:15:29;44.97;;;40.17;;
3726;SDS011;1879;45.876;12.300;2022-10-15T15:17:57;43.67;;;39.07;;